sensor_id;sensor_type;location;lat;lon;timestamp;temperature;humidity
24450;DHT22;13349;50.984;5.822;2024-03-25T00:01:45;3.90;99.90
24450;DHT22;13349;50.984;5.822;2024-03-25T00:04:12;3.90;99.90
24450;DHT22;13349;50.984;5.822;2024-03-25T00:06:38;3.90;99.90
24450;DHT22;13349;50.984;5.822;2024-03-25T00:09:05;3.80;99.90
24450;DHT22;13349;50.984;5.822;2024-03-25T00:11:33;3.90;99.90
24450;DHT22;13349;50.984;5.822;2024-03-25T00:14:00;3.90;99.90
24450;DHT22;13349;50.984;5.822;2024-03-25T00:16:26;3.80;99.90
24450;DHT22;13349;50.984;5.822;2024-03-25T00:18:54;3.80;99.90
24450;DHT22;13349;50.984;5.822;2024-03-25T00:21:20;3.80;99.90
24450;DHT22;13349;50.984;5.822;2024-03-25T00:23:47;3.80;99.90
24450;DHT22;13349;50.984;5.822;2024-03-25T00:26:13;3.80;99.90
24450;DHT22;13349;50.984;5.822;2024-03-25T00:28:40;3.80;99.90
24450;DHT22;13349;50.984;5.822;2024-03-25T00:31:06;3.80;99.90
24450;DHT22;13349;50.984;5.822;2024-03-25T00:33:33;3.80;99.90
24450;DHT22;13349;50.984;5.822;2024-03-25T00:36:00;3.90;99.90
24450;DHT22;13349;50.984;5.822;2024-03-25T00:38:27;3.80;99.90
24450;DHT22;13349;50.984;5.822;2024-03-25T00:40:53;3.80;99.90
24450;DHT22;13349;50.984;5.822;2024-03-25T00:43:20;3.80;99.90
24450;DHT22;13349;50.984;5.822;2024-03-25T00:45:45;3.90;99.90
24450;DHT22;13349;50.984;5.822;2024-03-25T00:48:12;3.90;99.90
24450;DHT22;13349;50.984;5.822;2024-03-25T00:50:38;3.90;99.90
24450;DHT22;13349;50.984;5.822;2024-03-25T00:53:07;3.80;99.90
24450;DHT22;13349;50.984;5.822;2024-03-25T00:55:33;3.90;99.90
24450;DHT22;13349;50.984;5.822;2024-03-25T00:58:01;3.90;99.90
24450;DHT22;13349;50.984;5.822;2024-03-25T01:00:26;3.80;99.90
24450;DHT22;13349;50.984;5.822;2024-03-25T01:02:53;3.80;99.90
24450;DHT22;13349;50.984;5.822;2024-03-25T01:05:19;3.90;99.90
24450;DHT22;13349;50.984;5.822;2024-03-25T01:07:46;4.00;99.90
24450;DHT22;13349;50.984;5.822;2024-03-25T01:10:13;3.90;99.90
24450;DHT22;13349;50.984;5.822;2024-03-25T01:12:41;3.90;99.90
24450;DHT22;13349;50.984;5.822;2024-03-25T01:15:07;4.00;99.90
24450;DHT22;13349;50.984;5.822;2024-03-25T01:17:35;4.00;99.90
24450;DHT22;13349;50.984;5.822;2024-03-25T01:20:03;4.00;99.90
24450;DHT22;13349;50.984;5.822;2024-03-25T01:22:29;4.00;99.90
24450;DHT22;13349;50.984;5.822;2024-03-25T01:24:56;4.00;99.90
24450;DHT22;13349;50.984;5.822;2024-03-25T01:27:24;4.00;99.90
24450;DHT22;13349;50.984;5.822;2024-03-25T01:29:51;4.10;99.90
24450;DHT22;13349;50.984;5.822;2024-03-25T01:32:17;4.10;99.90
24450;DHT22;13349;50.984;5.822;2024-03-25T01:34:44;4.10;99.90
24450;DHT22;13349;50.984;5.822;2024-03-25T01:37:10;4.10;99.90
24450;DHT22;13349;50.984;5.822;2024-03-25T01:39:37;4.00;99.90
24450;DHT22;13349;50.984;5.822;2024-03-25T01:42:04;3.90;99.90
24450;DHT22;13349;50.984;5.822;2024-03-25T01:44:33;3.90;99.90
24450;DHT22;13349;50.984;5.822;2024-03-25T01:46:59;4.00;99.90
24450;DHT22;13349;50.984;5.822;2024-03-25T01:49:26;3.90;99.90
24450;DHT22;13349;50.984;5.822;2024-03-25T01:51:52;3.90;99.90
24450;DHT22;13349;50.984;5.822;2024-03-25T01:54:19;3.80;99.90
24450;DHT22;13349;50.984;5.822;2024-03-25T01:56:45;3.70;99.90
24450;DHT22;13349;50.984;5.822;2024-03-25T01:59:12;3.70;99.90
24450;DHT22;13349;50.984;5.822;2024-03-25T02:01:40;3.70;99.90
24450;DHT22;13349;50.984;5.822;2024-03-25T02:04:07;3.70;99.90
24450;DHT22;13349;50.984;5.822;2024-03-25T02:06:33;3.70;99.90
24450;DHT22;13349;50.984;5.822;2024-03-25T02:09:02;3.60;99.90
24450;DHT22;13349;50.984;5.822;2024-03-25T02:11:29;3.60;99.90
24450;DHT22;13349;50.984;5.822;2024-03-25T02:13:56;3.60;99.90
24450;DHT22;13349;50.984;5.822;2024-03-25T02:16:22;3.50;99.90
24450;DHT22;13349;50.984;5.822;2024-03-25T02:18:51;3.60;99.90
24450;DHT22;13349;50.984;5.822;2024-03-25T02:21:17;3.60;99.90
24450;DHT22;13349;50.984;5.822;2024-03-25T02:23:44;3.60;99.90
24450;DHT22;13349;50.984;5.822;2024-03-25T02:26:12;3.60;99.90
24450;DHT22;13349;50.984;5.822;2024-03-25T02:28:39;3.50;99.90
24450;DHT22;13349;50.984;5.822;2024-03-25T02:31:04;3.50;99.90
24450;DHT22;13349;50.984;5.822;2024-03-25T02:33:31;3.40;99.90
24450;DHT22;13349;50.984;5.822;2024-03-25T02:35:57;3.50;99.90
24450;DHT22;13349;50.984;5.822;2024-03-25T02:38:24;3.40;99.90
24450;DHT22;13349;50.984;5.822;2024-03-25T02:40:50;3.40;99.90
24450;DHT22;13349;50.984;5.822;2024-03-25T02:43:19;3.40;99.90
24450;DHT22;13349;50.984;5.822;2024-03-25T02:45:46;3.50;99.90
24450;DHT22;13349;50.984;5.822;2024-03-25T02:48:13;3.40;99.90
24450;DHT22;13349;50.984;5.822;2024-03-25T02:50:39;3.30;99.90
24450;DHT22;13349;50.984;5.822;2024-03-25T02:53:06;3.30;99.90
24450;DHT22;13349;50.984;5.822;2024-03-25T02:55:32;3.30;99.90
24450;DHT22;13349;50.984;5.822;2024-03-25T02:57:59;3.40;99.90
24450;DHT22;13349;50.984;5.822;2024-03-25T03:00:26;3.40;99.90
24450;DHT22;13349;50.984;5.822;2024-03-25T03:02:53;3.40;99.90
24450;DHT22;13349;50.984;5.822;2024-03-25T03:05:19;3.40;99.90
24450;DHT22;13349;50.984;5.822;2024-03-25T03:07:46;3.40;99.90
24450;DHT22;13349;50.984;5.822;2024-03-25T03:10:12;3.30;99.90
24450;DHT22;13349;50.984;5.822;2024-03-25T03:12:39;3.40;99.90
24450;DHT22;13349;50.984;5.822;2024-03-25T03:15:05;3.40;99.90
24450;DHT22;13349;50.984;5.822;2024-03-25T03:17:34;3.40;99.90
24450;DHT22;13349;50.984;5.822;2024-03-25T03:19:59;3.50;99.90
24450;DHT22;13349;50.984;5.822;2024-03-25T03:22:26;3.40;99.90
24450;DHT22;13349;50.984;5.822;2024-03-25T03:24:52;3.30;99.90
24450;DHT22;13349;50.984;5.822;2024-03-25T03:27:19;3.40;99.90
24450;DHT22;13349;50.984;5.822;2024-03-25T03:29:45;3.20;99.90
24450;DHT22;13349;50.984;5.822;2024-03-25T03:32:12;3.30;99.90
24450;DHT22;13349;50.984;5.822;2024-03-25T03:34:39;3.40;99.90
24450;DHT22;13349;50.984;5.822;2024-03-25T03:37:06;3.50;99.90
24450;DHT22;13349;50.984;5.822;2024-03-25T03:39:32;3.40;99.90
24450;DHT22;13349;50.984;5.822;2024-03-25T03:41:59;3.50;99.90
24450;DHT22;13349;50.984;5.822;2024-03-25T03:44:25;3.40;99.90
24450;DHT22;13349;50.984;5.822;2024-03-25T03:46:52;3.40;99.90
24450;DHT22;13349;50.984;5.822;2024-03-25T03:49:18;3.50;99.90
24450;DHT22;13349;50.984;5.822;2024-03-25T03:51:46;3.40;99.90
24450;DHT22;13349;50.984;5.822;2024-03-25T03:54:12;3.40;99.90
24450;DHT22;13349;50.984;5.822;2024-03-25T03:56:39;3.30;99.90
24450;DHT22;13349;50.984;5.822;2024-03-25T03:59:05;3.20;99.90
24450;DHT22;13349;50.984;5.822;2024-03-25T04:01:34;3.10;99.90
24450;DHT22;13349;50.984;5.822;2024-03-25T04:03:59;3.20;99.90
24450;DHT22;13349;50.984;5.822;2024-03-25T04:06:26;3.20;99.90
24450;DHT22;13349;50.984;5.822;2024-03-25T04:08:53;3.30;99.90
24450;DHT22;13349;50.984;5.822;2024-03-25T04:11:20;3.30;99.90
24450;DHT22;13349;50.984;5.822;2024-03-25T04:13:46;3.40;99.90
24450;DHT22;13349;50.984;5.822;2024-03-25T04:16:13;3.40;99.90
24450;DHT22;13349;50.984;5.822;2024-03-25T04:18:39;3.30;99.90
24450;DHT22;13349;50.984;5.822;2024-03-25T04:21:11;3.20;99.90
24450;DHT22;13349;50.984;5.822;2024-03-25T04:23:37;3.20;99.90
24450;DHT22;13349;50.984;5.822;2024-03-25T04:26:06;3.20;99.90
24450;DHT22;13349;50.984;5.822;2024-03-25T04:28:34;3.10;99.90
24450;DHT22;13349;50.984;5.822;2024-03-25T04:31:01;3.00;99.90
24450;DHT22;13349;50.984;5.822;2024-03-25T04:33:27;2.90;99.90
24450;DHT22;13349;50.984;5.822;2024-03-25T04:35:54;2.90;99.90
24450;DHT22;13349;50.984;5.822;2024-03-25T04:38:20;2.90;99.90
24450;DHT22;13349;50.984;5.822;2024-03-25T04:40:46;2.90;99.90
24450;DHT22;13349;50.984;5.822;2024-03-25T04:43:13;2.90;99.90
24450;DHT22;13349;50.984;5.822;2024-03-25T04:45:39;2.90;99.90
24450;DHT22;13349;50.984;5.822;2024-03-25T04:48:05;2.90;99.90
24450;DHT22;13349;50.984;5.822;2024-03-25T04:50:32;2.80;99.90
24450;DHT22;13349;50.984;5.822;2024-03-25T04:52:58;2.80;99.90
24450;DHT22;13349;50.984;5.822;2024-03-25T04:55:24;2.70;99.90
24450;DHT22;13349;50.984;5.822;2024-03-25T04:57:50;2.60;99.90
24450;DHT22;13349;50.984;5.822;2024-03-25T05:00:17;2.60;99.90
24450;DHT22;13349;50.984;5.822;2024-03-25T05:02:43;2.70;99.90
24450;DHT22;13349;50.984;5.822;2024-03-25T05:05:09;2.70;99.90
24450;DHT22;13349;50.984;5.822;2024-03-25T05:07:35;2.50;99.90
24450;DHT22;13349;50.984;5.822;2024-03-25T05:10:01;2.40;99.90
24450;DHT22;13349;50.984;5.822;2024-03-25T05:12:27;2.30;99.90
24450;DHT22;13349;50.984;5.822;2024-03-25T05:14:53;2.30;99.90
24450;DHT22;13349;50.984;5.822;2024-03-25T05:17:21;2.30;99.90
24450;DHT22;13349;50.984;5.822;2024-03-25T05:19:47;2.30;99.90
24450;DHT22;13349;50.984;5.822;2024-03-25T05:22:13;2.30;99.90
24450;DHT22;13349;50.984;5.822;2024-03-25T05:24:39;2.50;99.90
24450;DHT22;13349;50.984;5.822;2024-03-25T05:27:04;2.60;99.90
24450;DHT22;13349;50.984;5.822;2024-03-25T05:29:30;2.70;99.90
24450;DHT22;13349;50.984;5.822;2024-03-25T05:31:57;2.70;99.90
24450;DHT22;13349;50.984;5.822;2024-03-25T05:34:25;2.70;99.90
24450;DHT22;13349;50.984;5.822;2024-03-25T05:36:51;2.70;99.90
24450;DHT22;13349;50.984;5.822;2024-03-25T05:39:17;2.80;99.90
24450;DHT22;13349;50.984;5.822;2024-03-25T05:41:42;2.70;99.90
24450;DHT22;13349;50.984;5.822;2024-03-25T05:44:08;2.90;99.90
24450;DHT22;13349;50.984;5.822;2024-03-25T05:46:34;2.90;99.90
24450;DHT22;13349;50.984;5.822;2024-03-25T05:49:03;3.00;99.90
24450;DHT22;13349;50.984;5.822;2024-03-25T05:51:31;3.20;99.90
24450;DHT22;13349;50.984;5.822;2024-03-25T05:53:57;3.30;99.90
24450;DHT22;13349;50.984;5.822;2024-03-25T05:56:23;3.40;99.90
24450;DHT22;13349;50.984;5.822;2024-03-25T05:58:48;3.50;99.90
24450;DHT22;13349;50.984;5.822;2024-03-25T06:01:14;3.50;99.90
24450;DHT22;13349;50.984;5.822;2024-03-25T06:03:40;3.60;99.90
24450;DHT22;13349;50.984;5.822;2024-03-25T06:06:06;3.70;99.90
24450;DHT22;13349;50.984;5.822;2024-03-25T06:08:33;3.70;99.90
24450;DHT22;13349;50.984;5.822;2024-03-25T06:11:02;3.60;99.90
24450;DHT22;13349;50.984;5.822;2024-03-25T06:13:28;3.70;99.90
24450;DHT22;13349;50.984;5.822;2024-03-25T06:15:54;3.70;99.90
24450;DHT22;13349;50.984;5.822;2024-03-25T06:18:20;3.80;99.90
24450;DHT22;13349;50.984;5.822;2024-03-25T06:20:46;3.90;99.90
24450;DHT22;13349;50.984;5.822;2024-03-25T06:23:21;3.90;99.90
24450;DHT22;13349;50.984;5.822;2024-03-25T06:25:48;4.00;99.90
24450;DHT22;13349;50.984;5.822;2024-03-25T06:28:14;4.10;99.90
24450;DHT22;13349;50.984;5.822;2024-03-25T06:30:40;4.20;99.90
24450;DHT22;13349;50.984;5.822;2024-03-25T06:33:24;4.30;99.90
24450;DHT22;13349;50.984;5.822;2024-03-25T06:36:17;4.30;99.90
24450;DHT22;13349;50.984;5.822;2024-03-25T06:38:43;4.40;99.90
24450;DHT22;13349;50.984;5.822;2024-03-25T06:41:11;4.40;99.90
24450;DHT22;13349;50.984;5.822;2024-03-25T06:43:37;4.40;99.90
24450;DHT22;13349;50.984;5.822;2024-03-25T06:46:03;4.50;99.90
24450;DHT22;13349;50.984;5.822;2024-03-25T06:48:29;4.70;99.90
24450;DHT22;13349;50.984;5.822;2024-03-25T06:50:55;4.90;99.90
24450;DHT22;13349;50.984;5.822;2024-03-25T06:53:21;5.00;99.90
24450;DHT22;13349;50.984;5.822;2024-03-25T06:55:50;5.10;99.90
24450;DHT22;13349;50.984;5.822;2024-03-25T06:58:18;5.00;99.90
24450;DHT22;13349;50.984;5.822;2024-03-25T07:00:44;5.00;99.90
24450;DHT22;13349;50.984;5.822;2024-03-25T07:03:09;5.10;99.90
24450;DHT22;13349;50.984;5.822;2024-03-25T07:05:35;5.10;99.90
24450;DHT22;13349;50.984;5.822;2024-03-25T07:08:01;5.10;99.90
24450;DHT22;13349;50.984;5.822;2024-03-25T07:10:27;5.20;99.90
24450;DHT22;13349;50.984;5.822;2024-03-25T07:12:53;5.30;99.90
24450;DHT22;13349;50.984;5.822;2024-03-25T07:15:20;5.30;99.90
24450;DHT22;13349;50.984;5.822;2024-03-25T07:17:46;5.40;99.90
24450;DHT22;13349;50.984;5.822;2024-03-25T07:20:12;5.50;99.90
24450;DHT22;13349;50.984;5.822;2024-03-25T07:22:38;5.60;99.90
24450;DHT22;13349;50.984;5.822;2024-03-25T07:25:04;5.70;99.90
24450;DHT22;13349;50.984;5.822;2024-03-25T07:27:30;5.80;99.90
24450;DHT22;13349;50.984;5.822;2024-03-25T07:29:56;5.90;99.90
24450;DHT22;13349;50.984;5.822;2024-03-25T07:32:23;6.00;99.90
24450;DHT22;13349;50.984;5.822;2024-03-25T07:34:49;6.20;99.90
24450;DHT22;13349;50.984;5.822;2024-03-25T07:37:15;6.30;99.90
24450;DHT22;13349;50.984;5.822;2024-03-25T07:39:41;6.40;99.90
24450;DHT22;13349;50.984;5.822;2024-03-25T07:42:07;6.50;99.90
24450;DHT22;13349;50.984;5.822;2024-03-25T07:44:33;6.60;99.90
24450;DHT22;13349;50.984;5.822;2024-03-25T07:46:59;6.70;99.90
24450;DHT22;13349;50.984;5.822;2024-03-25T07:49:26;6.80;99.90
24450;DHT22;13349;50.984;5.822;2024-03-25T07:51:52;6.80;99.90
24450;DHT22;13349;50.984;5.822;2024-03-25T07:54:18;6.90;99.90
24450;DHT22;13349;50.984;5.822;2024-03-25T07:56:44;7.10;99.90
24450;DHT22;13349;50.984;5.822;2024-03-25T07:59:10;7.20;99.90
24450;DHT22;13349;50.984;5.822;2024-03-25T08:01:36;7.20;99.90
24450;DHT22;13349;50.984;5.822;2024-03-25T08:04:02;7.10;99.90
24450;DHT22;13349;50.984;5.822;2024-03-25T08:06:29;7.10;99.90
24450;DHT22;13349;50.984;5.822;2024-03-25T08:08:55;7.20;99.90
24450;DHT22;13349;50.984;5.822;2024-03-25T08:11:21;7.30;99.90
24450;DHT22;13349;50.984;5.822;2024-03-25T08:13:47;7.30;99.90
24450;DHT22;13349;50.984;5.822;2024-03-25T08:16:13;7.40;99.90
24450;DHT22;13349;50.984;5.822;2024-03-25T08:18:39;7.60;99.90
24450;DHT22;13349;50.984;5.822;2024-03-25T08:21:05;7.60;99.90
24450;DHT22;13349;50.984;5.822;2024-03-25T08:23:32;7.60;99.90
24450;DHT22;13349;50.984;5.822;2024-03-25T08:25:58;7.70;99.90
24450;DHT22;13349;50.984;5.822;2024-03-25T08:28:24;7.80;99.90
24450;DHT22;13349;50.984;5.822;2024-03-25T08:30:50;7.80;99.90
24450;DHT22;13349;50.984;5.822;2024-03-25T08:33:16;7.70;99.90
24450;DHT22;13349;50.984;5.822;2024-03-25T08:35:42;7.90;99.90
24450;DHT22;13349;50.984;5.822;2024-03-25T08:38:07;7.90;99.90
24450;DHT22;13349;50.984;5.822;2024-03-25T08:40:35;7.90;99.90
24450;DHT22;13349;50.984;5.822;2024-03-25T08:43:01;8.20;99.90
24450;DHT22;13349;50.984;5.822;2024-03-25T08:45:27;8.20;99.90
24450;DHT22;13349;50.984;5.822;2024-03-25T08:47:52;8.40;99.90
24450;DHT22;13349;50.984;5.822;2024-03-25T08:50:18;8.20;99.90
24450;DHT22;13349;50.984;5.822;2024-03-25T08:52:44;8.30;99.90
24450;DHT22;13349;50.984;5.822;2024-03-25T08:55:10;8.60;99.90
24450;DHT22;13349;50.984;5.822;2024-03-25T08:57:38;8.70;99.90
24450;DHT22;13349;50.984;5.822;2024-03-25T09:00:04;8.80;99.90
24450;DHT22;13349;50.984;5.822;2024-03-25T09:02:30;8.80;99.90
24450;DHT22;13349;50.984;5.822;2024-03-25T09:04:56;8.80;99.90
24450;DHT22;13349;50.984;5.822;2024-03-25T09:07:22;8.60;99.90
24450;DHT22;13349;50.984;5.822;2024-03-25T09:09:48;8.90;99.90
24450;DHT22;13349;50.984;5.822;2024-03-25T09:12:32;9.10;99.90
24450;DHT22;13349;50.984;5.822;2024-03-25T09:14:59;9.00;99.90
24450;DHT22;13349;50.984;5.822;2024-03-25T09:17:25;9.50;99.90
24450;DHT22;13349;50.984;5.822;2024-03-25T09:19:51;9.80;99.90
24450;DHT22;13349;50.984;5.822;2024-03-25T09:22:17;10.00;99.90
24450;DHT22;13349;50.984;5.822;2024-03-25T09:24:43;10.00;1.00
24450;DHT22;13349;50.984;5.822;2024-03-25T09:27:09;9.80;1.00
24450;DHT22;13349;50.984;5.822;2024-03-25T09:29:35;10.20;99.90
24450;DHT22;13349;50.984;5.822;2024-03-25T09:32:02;10.50;1.00
24450;DHT22;13349;50.984;5.822;2024-03-25T09:34:28;10.90;1.00
24450;DHT22;13349;50.984;5.822;2024-03-25T09:36:54;10.90;1.00
24450;DHT22;13349;50.984;5.822;2024-03-25T09:39:20;10.80;99.90
24450;DHT22;13349;50.984;5.822;2024-03-25T09:41:46;10.90;1.00
24450;DHT22;13349;50.984;5.822;2024-03-25T09:44:13;11.20;99.90
24450;DHT22;13349;50.984;5.822;2024-03-25T09:46:39;11.30;23.10
24450;DHT22;13349;50.984;5.822;2024-03-25T09:49:06;11.40;1.00
24450;DHT22;13349;50.984;5.822;2024-03-25T09:51:32;11.40;99.90
24450;DHT22;13349;50.984;5.822;2024-03-25T09:53:59;11.60;23.50
24450;DHT22;13349;50.984;5.822;2024-03-25T09:56:25;12.00;1.00
24450;DHT22;13349;50.984;5.822;2024-03-25T09:58:51;12.40;1.00
24450;DHT22;13349;50.984;5.822;2024-03-25T10:01:17;12.70;1.00
24450;DHT22;13349;50.984;5.822;2024-03-25T10:03:43;13.00;99.90
24450;DHT22;13349;50.984;5.822;2024-03-25T10:06:10;13.30;91.90
24450;DHT22;13349;50.984;5.822;2024-03-25T10:08:37;13.00;1.00
24450;DHT22;13349;50.984;5.822;2024-03-25T10:11:03;12.40;1.00
24450;DHT22;13349;50.984;5.822;2024-03-25T10:13:29;12.50;1.00
24450;DHT22;13349;50.984;5.822;2024-03-25T10:15:55;13.00;1.00
24450;DHT22;13349;50.984;5.822;2024-03-25T10:18:21;13.00;99.90
24450;DHT22;13349;50.984;5.822;2024-03-25T10:20:50;12.90;99.90
24450;DHT22;13349;50.984;5.822;2024-03-25T10:23:17;13.10;99.90
24450;DHT22;13349;50.984;5.822;2024-03-25T10:25:47;13.20;99.90
24450;DHT22;13349;50.984;5.822;2024-03-25T10:28:13;13.60;99.90
24450;DHT22;13349;50.984;5.822;2024-03-25T10:30:39;13.60;99.90
24450;DHT22;13349;50.984;5.822;2024-03-25T10:33:06;13.50;99.90
24450;DHT22;13349;50.984;5.822;2024-03-25T10:35:33;13.40;99.20
24450;DHT22;13349;50.984;5.822;2024-03-25T10:38:00;13.10;54.90
24450;DHT22;13349;50.984;5.822;2024-03-25T10:40:28;12.70;33.60
24450;DHT22;13349;50.984;5.822;2024-03-25T10:43:00;12.40;14.40
24450;DHT22;13349;50.984;5.822;2024-03-25T10:45:26;12.90;22.10
24450;DHT22;13349;50.984;5.822;2024-03-25T10:47:53;12.90;8.30
24450;DHT22;13349;50.984;5.822;2024-03-25T10:50:19;13.20;2.80
24450;DHT22;13349;50.984;5.822;2024-03-25T10:52:46;13.10;9.20
24450;DHT22;13349;50.984;5.822;2024-03-25T10:55:12;13.10;1.00
24450;DHT22;13349;50.984;5.822;2024-03-25T10:57:40;12.80;1.00
24450;DHT22;13349;50.984;5.822;2024-03-25T11:00:06;13.60;1.00
24450;DHT22;13349;50.984;5.822;2024-03-25T11:02:32;13.90;1.00
24450;DHT22;13349;50.984;5.822;2024-03-25T11:04:58;13.90;1.00
24450;DHT22;13349;50.984;5.822;2024-03-25T11:07:30;13.90;1.00
24450;DHT22;13349;50.984;5.822;2024-03-25T11:10:02;14.00;1.00
24450;DHT22;13349;50.984;5.822;2024-03-25T11:12:31;14.40;1.00
24450;DHT22;13349;50.984;5.822;2024-03-25T11:15:00;14.20;1.00
24450;DHT22;13349;50.984;5.822;2024-03-25T11:17:26;14.30;1.00
24450;DHT22;13349;50.984;5.822;2024-03-25T11:19:52;14.60;1.00
24450;DHT22;13349;50.984;5.822;2024-03-25T11:22:23;14.90;1.00
24450;DHT22;13349;50.984;5.822;2024-03-25T11:24:49;15.00;1.00
24450;DHT22;13349;50.984;5.822;2024-03-25T11:27:20;14.70;1.00
24450;DHT22;13349;50.984;5.822;2024-03-25T11:29:46;15.30;1.00
24450;DHT22;13349;50.984;5.822;2024-03-25T11:32:14;15.10;1.00
24450;DHT22;13349;50.984;5.822;2024-03-25T11:34:49;15.30;1.00
24450;DHT22;13349;50.984;5.822;2024-03-25T11:37:15;14.90;1.00
24450;DHT22;13349;50.984;5.822;2024-03-25T11:39:41;15.70;1.00
24450;DHT22;13349;50.984;5.822;2024-03-25T11:42:07;15.10;1.00
24450;DHT22;13349;50.984;5.822;2024-03-25T11:44:35;14.60;1.00
24450;DHT22;13349;50.984;5.822;2024-03-25T11:47:01;14.90;1.00
24450;DHT22;13349;50.984;5.822;2024-03-25T11:49:28;14.40;1.00
24450;DHT22;13349;50.984;5.822;2024-03-25T11:51:54;14.70;1.00
24450;DHT22;13349;50.984;5.822;2024-03-25T11:54:20;15.20;1.00
24450;DHT22;13349;50.984;5.822;2024-03-25T11:56:46;14.80;1.00
24450;DHT22;13349;50.984;5.822;2024-03-25T11:59:12;15.20;1.00
24450;DHT22;13349;50.984;5.822;2024-03-25T12:01:38;15.70;1.00
24450;DHT22;13349;50.984;5.822;2024-03-25T12:04:10;16.40;1.00
24450;DHT22;13349;50.984;5.822;2024-03-25T12:06:38;16.40;1.00
24450;DHT22;13349;50.984;5.822;2024-03-25T12:09:03;16.20;1.00
24450;DHT22;13349;50.984;5.822;2024-03-25T12:11:44;15.50;1.00
24450;DHT22;13349;50.984;5.822;2024-03-25T12:14:11;15.40;1.00
24450;DHT22;13349;50.984;5.822;2024-03-25T12:16:37;14.60;1.00
24450;DHT22;13349;50.984;5.822;2024-03-25T12:19:03;14.60;1.00
24450;DHT22;13349;50.984;5.822;2024-03-25T12:21:30;14.90;1.00
24450;DHT22;13349;50.984;5.822;2024-03-25T12:23:58;15.00;1.00
24450;DHT22;13349;50.984;5.822;2024-03-25T12:26:25;15.00;1.00
24450;DHT22;13349;50.984;5.822;2024-03-25T12:28:51;14.20;1.00
24450;DHT22;13349;50.984;5.822;2024-03-25T12:31:17;14.30;1.00
24450;DHT22;13349;50.984;5.822;2024-03-25T12:33:43;14.10;1.00
24450;DHT22;13349;50.984;5.822;2024-03-25T12:36:11;14.10;1.00
24450;DHT22;13349;50.984;5.822;2024-03-25T12:38:37;14.60;1.00
24450;DHT22;13349;50.984;5.822;2024-03-25T12:41:07;15.00;1.00
24450;DHT22;13349;50.984;5.822;2024-03-25T12:43:34;14.90;1.00
24450;DHT22;13349;50.984;5.822;2024-03-25T12:46:00;14.90;1.00
24450;DHT22;13349;50.984;5.822;2024-03-25T12:48:26;15.70;1.00
24450;DHT22;13349;50.984;5.822;2024-03-25T12:50:52;15.10;1.00
24450;DHT22;13349;50.984;5.822;2024-03-25T12:53:18;15.90;1.00
24450;DHT22;13349;50.984;5.822;2024-03-25T12:55:44;16.40;1.00
24450;DHT22;13349;50.984;5.822;2024-03-25T12:58:11;15.10;1.00
24450;DHT22;13349;50.984;5.822;2024-03-25T13:00:37;15.10;1.00
24450;DHT22;13349;50.984;5.822;2024-03-25T13:03:04;15.00;1.00
24450;DHT22;13349;50.984;5.822;2024-03-25T13:05:30;15.40;1.00
24450;DHT22;13349;50.984;5.822;2024-03-25T13:07:56;15.00;1.00
24450;DHT22;13349;50.984;5.822;2024-03-25T13:10:22;13.80;1.00
24450;DHT22;13349;50.984;5.822;2024-03-25T13:12:47;14.00;1.00
24450;DHT22;13349;50.984;5.822;2024-03-25T13:15:15;14.10;1.00
24450;DHT22;13349;50.984;5.822;2024-03-25T13:17:41;14.40;1.00
24450;DHT22;13349;50.984;5.822;2024-03-25T13:20:07;14.90;1.00
24450;DHT22;13349;50.984;5.822;2024-03-25T13:22:33;14.50;1.00
24450;DHT22;13349;50.984;5.822;2024-03-25T13:24:59;13.90;1.00
24450;DHT22;13349;50.984;5.822;2024-03-25T13:27:25;14.10;1.00
24450;DHT22;13349;50.984;5.822;2024-03-25T13:29:51;14.90;1.00
24450;DHT22;13349;50.984;5.822;2024-03-25T13:32:19;14.80;1.00
24450;DHT22;13349;50.984;5.822;2024-03-25T13:34:45;14.80;1.00
24450;DHT22;13349;50.984;5.822;2024-03-25T13:37:11;14.50;1.00
24450;DHT22;13349;50.984;5.822;2024-03-25T13:39:37;14.30;1.00
24450;DHT22;13349;50.984;5.822;2024-03-25T13:42:03;14.20;1.00
24450;DHT22;13349;50.984;5.822;2024-03-25T13:44:28;13.60;1.00
24450;DHT22;13349;50.984;5.822;2024-03-25T13:46:54;13.50;1.00
24450;DHT22;13349;50.984;5.822;2024-03-25T13:49:22;13.70;1.00
24450;DHT22;13349;50.984;5.822;2024-03-25T13:51:48;13.70;1.00
24450;DHT22;13349;50.984;5.822;2024-03-25T13:54:14;13.90;1.00
24450;DHT22;13349;50.984;5.822;2024-03-25T13:56:39;13.90;1.00
24450;DHT22;13349;50.984;5.822;2024-03-25T13:59:06;13.50;1.00
24450;DHT22;13349;50.984;5.822;2024-03-25T14:01:32;13.10;1.00
24450;DHT22;13349;50.984;5.822;2024-03-25T14:03:58;13.40;1.00
24450;DHT22;13349;50.984;5.822;2024-03-25T14:06:25;13.80;1.00
24450;DHT22;13349;50.984;5.822;2024-03-25T14:08:51;13.90;1.00
24450;DHT22;13349;50.984;5.822;2024-03-25T14:11:17;14.10;1.00
24450;DHT22;13349;50.984;5.822;2024-03-25T14:13:43;14.20;1.00
24450;DHT22;13349;50.984;5.822;2024-03-25T14:16:09;14.20;1.00
24450;DHT22;13349;50.984;5.822;2024-03-25T14:18:35;14.10;1.00
24450;DHT22;13349;50.984;5.822;2024-03-25T14:21:00;13.50;1.00
24450;DHT22;13349;50.984;5.822;2024-03-25T14:23:28;13.20;1.00
24450;DHT22;13349;50.984;5.822;2024-03-25T14:25:54;13.60;1.00
24450;DHT22;13349;50.984;5.822;2024-03-25T14:28:19;13.90;1.00
24450;DHT22;13349;50.984;5.822;2024-03-25T14:30:45;14.30;1.00
24450;DHT22;13349;50.984;5.822;2024-03-25T14:33:11;14.60;1.00
24450;DHT22;13349;50.984;5.822;2024-03-25T14:35:37;15.20;1.00
24450;DHT22;13349;50.984;5.822;2024-03-25T14:38:03;15.20;1.00
24450;DHT22;13349;50.984;5.822;2024-03-25T14:40:31;15.00;1.00
24450;DHT22;13349;50.984;5.822;2024-03-25T14:42:56;14.70;1.00
24450;DHT22;13349;50.984;5.822;2024-03-25T14:45:22;15.00;1.00
24450;DHT22;13349;50.984;5.822;2024-03-25T14:47:50;14.90;1.00
24450;DHT22;13349;50.984;5.822;2024-03-25T14:50:16;14.40;1.00
24450;DHT22;13349;50.984;5.822;2024-03-25T14:52:42;14.10;1.00
24450;DHT22;13349;50.984;5.822;2024-03-25T14:55:08;14.10;1.00
24450;DHT22;13349;50.984;5.822;2024-03-25T14:57:36;14.30;1.00
24450;DHT22;13349;50.984;5.822;2024-03-25T15:00:02;13.90;1.00
24450;DHT22;13349;50.984;5.822;2024-03-25T15:02:28;13.70;1.00
24450;DHT22;13349;50.984;5.822;2024-03-25T15:04:54;13.30;1.00
24450;DHT22;13349;50.984;5.822;2024-03-25T15:07:20;13.00;1.00
24450;DHT22;13349;50.984;5.822;2024-03-25T15:09:46;13.00;1.00
24450;DHT22;13349;50.984;5.822;2024-03-25T15:12:12;13.10;1.00
24450;DHT22;13349;50.984;5.822;2024-03-25T15:14:39;13.40;1.00
24450;DHT22;13349;50.984;5.822;2024-03-25T15:17:05;13.20;1.00
24450;DHT22;13349;50.984;5.822;2024-03-25T15:19:31;13.50;1.00
24450;DHT22;13349;50.984;5.822;2024-03-25T15:21:57;13.90;1.00
24450;DHT22;13349;50.984;5.822;2024-03-25T15:24:23;13.90;1.00
24450;DHT22;13349;50.984;5.822;2024-03-25T15:26:49;14.20;1.00
24450;DHT22;13349;50.984;5.822;2024-03-25T15:29:15;14.20;1.00
24450;DHT22;13349;50.984;5.822;2024-03-25T15:31:42;14.60;1.00
24450;DHT22;13349;50.984;5.822;2024-03-25T15:34:08;14.70;1.00
24450;DHT22;13349;50.984;5.822;2024-03-25T15:36:34;15.00;1.00
24450;DHT22;13349;50.984;5.822;2024-03-25T15:39:00;14.60;1.00
24450;DHT22;13349;50.984;5.822;2024-03-25T15:41:26;14.10;1.00